Time;durP1;ratioP1;P1;durP2;ratioP2;P2;SDS_P1;SDS_P2;PMS_P1;PMS_P2;Temp;Humidity;BMP_temperature;BMP_pressure;BME280_temperature;BME280_humidity;BME280_pressure;Samples;Min_cycle;Max_cycle;Signal;HPM_P1;HPM_P2
2023/08/07 00:00:57;;;;;;;7.10;4.20;;;14.80;99.90;;;;;;5073257;28;20442;-68
2023/08/07 00:03:23;;;;;;;9.27;4.28;;;14.80;99.90;;;;;;5073136;28;20040;-68
2023/08/07 00:05:49;;;;;;;6.95;4.05;;;14.90;99.90;;;;;;5071932;28;20488;-68
2023/08/07 00:08:14;;;;;;;8.52;4.88;;;15.00;99.90;;;;;;5072442;28;20689;-68
2023/08/07 00:10:40;;;;;;;8.50;5.00;;;14.80;99.90;;;;;;5072854;28;20041;-68
2023/08/07 00:13:06;;;;;;;11.25;3.90;;;14.90;99.90;;;;;;5072959;28;20087;-68
2023/08/07 00:15:33;;;;;;;9.10;3.40;;;14.90;99.90;;;;;;5072869;28;20454;-67
2023/08/07 00:17:59;;;;;;;7.80;3.15;;;14.90;99.90;;;;;;5072566;28;20052;-68
2023/08/07 00:20:24;;;;;;;6.68;3.50;;;14.90;99.90;;;;;;5072772;28;20404;-68
2023/08/07 00:22:50;;;;;;;5.63;3.28;;;14.90;99.90;;;;;;5072572;28;20037;-68
2023/08/07 00:25:16;;;;;;;6.00;3.42;;;15.20;99.90;;;;;;5072524;28;20044;-68
2023/08/07 00:27:41;;;;;;;13.70;4.40;;;14.90;99.90;;;;;;5072509;28;20090;-67
2023/08/07 00:30:07;;;;;;;7.07;3.78;;;15.00;99.90;;;;;;5072535;28;20059;-68
2023/08/07 00:32:33;;;;;;;7.47;3.92;;;15.30;99.90;;;;;;5072558;28;20028;-68
2023/08/07 00:34:58;;;;;;;9.05;4.43;;;15.10;99.90;;;;;;5071062;28;20062;-68
2023/08/07 00:37:24;;;;;;;9.10;4.63;;;15.10;99.90;;;;;;5072076;28;20037;-68
2023/08/07 00:39:49;;;;;;;7.57;3.88;;;15.10;99.90;;;;;;5072033;28;20583;-68
2023/08/07 00:42:15;;;;;;;14.05;4.60;;;15.00;99.90;;;;;;5072481;28;20041;-68
2023/08/07 00:44:41;;;;;;;8.45;4.28;;;15.30;99.90;;;;;;5072408;28;20036;-68
2023/08/07 00:47:06;;;;;;;6.85;4.47;;;15.10;99.90;;;;;;5071253;28;20040;-68
2023/08/07 00:49:33;;;;;;;7.05;4.88;;;15.20;99.90;;;;;;5072139;28;20029;-68
2023/08/07 00:51:59;;;;;;;6.35;4.60;;;15.00;99.90;;;;;;5072025;28;20389;-68
2023/08/07 00:54:25;;;;;;;8.40;5.00;;;15.10;99.90;;;;;;5072170;28;20063;-68
2023/08/07 00:56:51;;;;;;;7.80;4.68;;;14.90;99.90;;;;;;5070615;28;20044;-68
2023/08/07 00:59:18;;;;;;;7.15;4.97;;;15.20;99.90;;;;;;5071999;28;20040;-68
2023/08/07 01:01:44;;;;;;;7.90;5.00;;;14.90;99.90;;;;;;5072025;28;20496;-68
2023/08/07 01:04:10;;;;;;;6.80;4.93;;;15.10;99.90;;;;;;5071964;28;20094;-68
2023/08/07 01:06:35;;;;;;;6.78;4.50;;;15.10;99.90;;;;;;5071810;28;20049;-68
2023/08/07 01:09:01;;;;;;;11.25;4.60;;;14.90;99.90;;;;;;5071516;28;20403;-68
2023/08/07 01:11:54;;;;;;;8.00;4.32;;;15.10;99.90;;;;;;5071808;28;20032;-68
2023/08/07 01:14:51;;;;;;;9.07;4.20;;;15.10;99.90;;;;;;5035152;28;20064;-68
2023/08/07 01:17:21;;;;;;;9.52;3.60;;;14.80;99.90;;;;;;5071487;28;20036;-68
2023/08/07 01:19:49;;;;;;;8.07;4.18;;;15.00;99.90;;;;;;5071879;28;20101;-68
2023/08/07 01:22:18;;;;;;;9.82;4.50;;;15.10;99.90;;;;;;5071866;28;20044;-68
2023/08/07 01:24:46;;;;;;;7.38;3.67;;;15.10;99.90;;;;;;5071840;28;20036;-68
2023/08/07 01:27:17;;;;;;;7.68;4.13;;;15.10;99.90;;;;;;5071412;28;20037;-68
2023/08/07 01:29:55;;;;;;;4.60;3.90;;;15.00;99.90;;;;;;5071505;28;20419;-68
2023/08/07 01:32:35;;;;;;;6.75;3.95;;;14.80;99.90;;;;;;5071878;28;20036;-68
2023/08/07 01:35:03;;;;;;;6.63;3.47;;;15.00;99.90;;;;;;5071649;28;20045;-68
2023/08/07 01:37:30;;;;;;;5.25;3.10;;;15.00;99.90;;;;;;5071418;28;20037;-69
2023/08/07 01:39:58;;;;;;;9.68;3.15;;;14.90;99.90;;;;;;5070262;28;20068;-68
2023/08/07 01:42:24;;;;;;;5.78;2.75;;;14.80;99.90;;;;;;5071791;28;20059;-68
2023/08/07 01:44:50;;;;;;;6.95;2.47;;;14.80;99.90;;;;;;5071692;28;20044;-68
2023/08/07 01:47:16;;;;;;;6.68;3.08;;;14.80;99.90;;;;;;5070180;28;20048;-68
2023/08/07 01:49:41;;;;;;;5.63;3.25;;;14.70;99.90;;;;;;5071416;28;20047;-68
2023/08/07 01:52:08;;;;;;;3.88;2.70;;;14.80;99.90;;;;;;5071468;28;20458;-68
2023/08/07 01:54:33;;;;;;;7.85;2.53;;;14.70;99.90;;;;;;5070035;28;20044;-68
2023/08/07 01:56:59;;;;;;;4.43;3.25;;;14.70;99.90;;;;;;5071284;28;20138;-68
2023/08/07 01:59:24;;;;;;;5.68;2.85;;;14.60;99.90;;;;;;5073608;28;20037;-68
2023/08/07 02:01:50;;;;;;;8.00;4.32;;;14.60;99.90;;;;;;5075494;28;20043;-68
2023/08/07 02:04:16;;;;;;;5.75;3.10;;;14.50;99.90;;;;;;5075400;28;20068;-68
2023/08/07 02:06:41;;;;;;;4.65;3.20;;;14.50;99.90;;;;;;5075258;28;20385;-68
2023/08/07 02:09:07;;;;;;;6.47;2.85;;;14.40;99.90;;;;;;5074770;28;20046;-68
2023/08/07 02:11:32;;;;;;;4.68;3.08;;;14.40;99.90;;;;;;5075435;28;20120;-68
2023/08/07 02:13:58;;;;;;;5.35;3.63;;;14.60;99.90;;;;;;5075265;28;20094;-68
2023/08/07 02:16:23;;;;;;;6.15;3.10;;;14.40;99.90;;;;;;5075082;28;20044;-68
2023/08/07 02:18:49;;;;;;;4.88;3.08;;;14.60;99.90;;;;;;5074883;28;20049;-68
2023/08/07 02:21:14;;;;;;;4.82;2.95;;;14.30;99.90;;;;;;5075036;28;20045;-69
2023/08/07 02:23:41;;;;;;;9.68;3.97;;;14.50;99.90;;;;;;5074899;28;20093;-68
2023/08/07 02:26:06;;;;;;;7.35;3.40;;;14.50;99.90;;;;;;5074821;28;20143;-68
2023/08/07 02:28:32;;;;;;;7.47;2.85;;;14.40;99.90;;;;;;5073287;28;20143;-68
2023/08/07 02:30:57;;;;;;;5.20;2.97;;;14.40;99.90;;;;;;5074922;28;20454;-68
2023/08/07 02:33:23;;;;;;;6.30;2.67;;;14.50;99.90;;;;;;5074666;28;20047;-68
2023/08/07 02:35:50;;;;;;;5.70;2.92;;;14.30;99.90;;;;;;5074739;28;20040;-68
2023/08/07 02:38:17;;;;;;;5.10;2.83;;;14.30;99.90;;;;;;5074231;28;20565;-68
2023/08/07 02:40:43;;;;;;;6.90;2.80;;;14.30;99.90;;;;;;5074916;28;20116;-68
2023/08/07 02:43:08;;;;;;;5.35;2.83;;;14.40;99.90;;;;;;5074792;28;20564;-68
2023/08/07 02:45:35;;;;;;;6.32;2.80;;;14.50;99.90;;;;;;5074631;28;20040;-68
2023/08/07 02:48:01;;;;;;;8.73;2.40;;;14.50;99.90;;;;;;5074220;28;20484;-68
2023/08/07 02:50:29;;;;;;;7.68;2.80;;;14.40;99.90;;;;;;5074513;28;20377;-68
2023/08/07 02:52:55;;;;;;;9.77;3.10;;;14.50;99.90;;;;;;5074318;28;20089;-68
2023/08/07 02:55:20;;;;;;;8.00;2.25;;;14.30;99.90;;;;;;5074585;28;20045;-68
2023/08/07 02:57:46;;;;;;;4.25;2.63;;;14.40;99.90;;;;;;5074214;28;20032;-68
2023/08/07 03:00:12;;;;;;;9.38;2.53;;;14.40;99.90;;;;;;5074341;28;20075;-68
2023/08/07 03:02:37;;;;;;;5.60;3.60;;;14.30;99.90;;;;;;5074335;28;20029;-68
2023/08/07 03:05:03;;;;;;;9.70;3.17;;;14.50;99.90;;;;;;5074236;28;20166;-67
2023/08/07 03:07:29;;;;;;;10.30;3.25;;;14.30;99.90;;;;;;5073922;28;20523;-68
2023/08/07 03:09:54;;;;;;;6.70;2.85;;;14.30;99.90;;;;;;5096678;22;20425;-69
2023/08/07 03:12:20;;;;;;;9.82;2.80;;;14.30;99.90;;;;;;5039627;28;20130;-68
2023/08/07 03:14:45;;;;;;;8.35;3.30;;;14.60;99.90;;;;;;5056052;28;20037;-69
2023/08/07 03:17:11;;;;;;;10.60;3.45;;;14.40;99.90;;;;;;5056077;28;20044;-72
2023/08/07 03:19:36;;;;;;;14.82;3.22;;;14.30;99.90;;;;;;5055940;28;20565;-72
2023/08/07 03:22:02;;;;;;;10.73;3.40;;;14.60;99.90;;;;;;5055950;28;20047;-72
2023/08/07 03:24:28;;;;;;;8.63;3.10;;;14.40;99.90;;;;;;5055825;28;20136;-72
2023/08/07 03:26:53;;;;;;;13.65;3.55;;;14.50;99.90;;;;;;5073689;28;20120;-72
2023/08/07 03:29:19;;;;;;;9.68;3.08;;;14.60;99.90;;;;;;5073452;28;20090;-72
2023/08/07 03:31:44;;;;;;;8.25;2.92;;;14.30;99.90;;;;;;5055683;28;20052;-72
2023/08/07 03:34:10;;;;;;;7.82;3.15;;;14.40;99.90;;;;;;5055751;28;20040;-72
2023/08/07 03:36:35;;;;;;;4.78;2.88;;;14.60;99.90;;;;;;5055537;28;20040;-72
2023/08/07 03:39:01;;;;;;;9.23;3.25;;;14.60;99.90;;;;;;5055924;28;20043;-72
2023/08/07 03:41:28;;;;;;;13.80;3.20;;;14.30;99.90;;;;;;5055465;28;20553;-72
2023/08/07 03:43:53;;;;;;;8.30;3.20;;;14.50;99.90;;;;;;5055500;28;20052;-72
2023/08/07 03:46:19;;;;;;;12.32;3.13;;;14.50;99.90;;;;;;5055343;28;20431;-72
2023/08/07 03:48:44;;;;;;;10.45;3.17;;;14.40;99.90;;;;;;5055201;28;20465;-72
2023/08/07 03:51:10;;;;;;;8.15;3.20;;;14.50;99.90;;;;;;5055378;28;20105;-72
2023/08/07 03:53:37;;;;;;;6.93;2.70;;;14.60;99.90;;;;;;5055313;28;20048;-72
2023/08/07 03:56:02;;;;;;;8.77;2.80;;;14.40;99.90;;;;;;5055327;28;20122;-72
2023/08/07 03:58:28;;;;;;;11.60;3.00;;;14.50;99.90;;;;;;5054894;28;20119;-69
2023/08/07 04:00:54;;;;;;;15.02;3.95;;;14.60;99.90;;;;;;5073090;28;20037;-69
2023/08/07 04:03:20;;;;;;;9.38;3.33;;;14.60;99.90;;;;;;5055086;28;20470;-70
2023/08/07 04:05:46;;;;;;;7.68;3.15;;;14.60;99.90;;;;;;5038310;28;20036;-69
2023/08/07 04:08:12;;;;;;;12.00;2.95;;;14.60;99.90;;;;;;5072603;28;20044;-69
2023/08/07 04:10:37;;;;;;;8.52;3.17;;;14.40;99.90;;;;;;5072968;28;20467;-70
2023/08/07 04:13:03;;;;;;;12.40;3.03;;;14.50;99.90;;;;;;5054837;28;20431;-69
2023/08/07 04:15:28;;;;;;;11.90;2.97;;;14.50;99.90;;;;;;5072796;28;20097;-69
2023/08/07 04:17:54;;;;;;;6.28;2.97;;;14.60;99.90;;;;;;5054338;28;20124;-69
2023/08/07 04:20:20;;;;;;;7.22;2.88;;;14.40;99.90;;;;;;5054798;28;20052;-71
2023/08/07 04:22:46;;;;;;;7.78;2.33;;;14.50;99.90;;;;;;5053765;28;20107;-71
2023/08/07 04:25:12;;;;;;;10.63;3.38;;;14.60;99.90;;;;;;5054711;28;20055;-71
2023/08/07 04:27:38;;;;;;;10.10;3.08;;;14.70;99.90;;;;;;5072170;28;20123;-71
2023/08/07 04:30:05;;;;;;;6.05;2.80;;;14.70;99.90;;;;;;5037904;28;20481;-71
2023/08/07 04:32:31;;;;;;;6.55;2.78;;;14.50;99.90;;;;;;5054566;28;20045;-71
2023/08/07 04:34:56;;;;;;;11.43;3.13;;;14.40;99.90;;;;;;5054433;28;20044;-71
2023/08/07 04:37:22;;;;;;;8.20;3.20;;;14.70;99.90;;;;;;5054494;28;20399;-71
2023/08/07 04:39:48;;;;;;;9.15;3.20;;;14.70;99.90;;;;;;5072382;28;20098;-71
2023/08/07 04:42:13;;;;;;;9.82;3.25;;;14.70;99.90;;;;;;5054273;28;20466;-72
2023/08/07 04:44:39;;;;;;;11.20;4.32;;;14.50;99.90;;;;;;5054322;28;20076;-72
2023/08/07 04:47:05;;;;;;;15.10;4.03;;;14.60;99.90;;;;;;5071893;28;20044;-72
2023/08/07 04:49:30;;;;;;;9.82;3.22;;;14.40;99.90;;;;;;5054234;28;20033;-70
2023/08/07 04:51:56;;;;;;;14.07;3.80;;;14.70;99.90;;;;;;5054271;28;20044;-70
2023/08/07 04:54:21;;;;;;;11.63;3.22;;;14.50;99.90;;;;;;5054132;28;20048;-71
2023/08/07 04:56:47;;;;;;;13.48;3.90;;;14.70;99.90;;;;;;5054001;28;20068;-71
2023/08/07 04:59:13;;;;;;;13.57;3.45;;;14.50;99.90;;;;;;5053938;28;20063;-71
2023/08/07 05:01:38;;;;;;;10.68;3.83;;;14.70;99.90;;;;;;5054054;28;20083;-70
2023/08/07 05:04:05;;;;;;;11.02;4.10;;;14.80;99.90;;;;;;5054061;28;20048;-70
2023/08/07 05:06:31;;;;;;;9.88;4.05;;;14.60;99.90;;;;;;5053927;28;20089;-70
2023/08/07 05:08:56;;;;;;;16.02;3.90;;;14.60;99.90;;;;;;5053803;28;20124;-70
2023/08/07 05:11:22;;;;;;;10.75;4.60;;;14.80;99.90;;;;;;5053745;28;20119;-70
2023/08/07 05:13:47;;;;;;;17.20;4.82;;;14.80;99.90;;;;;;5071889;28;20080;-70
2023/08/07 05:16:13;;;;;;;13.20;3.65;;;14.60;99.90;;;;;;5053872;28;20543;-69
2023/08/07 05:18:38;;;;;;;14.10;3.83;;;14.70;99.90;;;;;;5053513;28;20040;-70
2023/08/07 05:21:04;;;;;;;17.08;4.43;;;14.80;99.90;;;;;;5053812;28;20407;-69
2023/08/07 05:23:30;;;;;;;11.50;3.33;;;14.60;99.90;;;;;;5054091;28;20044;-70
2023/08/07 05:25:55;;;;;;;10.45;3.42;;;14.70;99.90;;;;;;5053710;28;20078;-70
2023/08/07 05:28:21;;;;;;;11.57;3.65;;;14.90;99.90;;;;;;5053654;28;20485;-70
2023/08/07 05:30:46;;;;;;;12.63;3.58;;;15.00;99.90;;;;;;5053699;28;20166;-70
2023/08/07 05:33:14;;;;;;;16.58;4.13;;;14.90;99.90;;;;;;5071344;28;20059;-70
2023/08/07 05:35:40;;;;;;;12.82;3.78;;;15.10;99.90;;;;;;5053616;28;20399;-70
2023/08/07 05:38:05;;;;;;;14.68;4.28;;;15.00;99.90;;;;;;5053302;28;20119;-70
2023/08/07 05:40:31;;;;;;;14.20;4.05;;;15.00;99.90;;;;;;5053811;28;20154;-70
2023/08/07 05:42:56;;;;;;;14.13;4.13;;;15.00;99.90;;;;;;5071440;28;20119;-70
2023/08/07 05:45:22;;;;;;;15.18;4.10;;;15.20;99.90;;;;;;5053195;28;20036;-70
2023/08/07 05:47:48;;;;;;;12.90;4.13;;;15.00;99.90;;;;;;5070224;28;20029;-70
2023/08/07 05:50:13;;;;;;;16.63;5.40;;;15.00;99.90;;;;;;5053443;28;20424;-70
2023/08/07 05:52:39;;;;;;;17.75;4.25;;;15.30;99.90;;;;;;5071471;28;20477;-70
2023/08/07 05:55:05;;;;;;;15.35;4.65;;;15.60;99.90;;;;;;5053327;28;20122;-70
2023/08/07 05:57:30;;;;;;;18.15;5.57;;;15.80;99.90;;;;;;5071055;28;20581;-70
2023/08/07 05:59:56;;;;;;;17.80;5.50;;;16.20;99.90;;;;;;5071124;28;20090;-71
2023/08/07 06:02:22;;;;;;;10.50;4.78;;;16.20;99.90;;;;;;5036328;28;20041;-71
2023/08/07 06:04:48;;;;;;;15.27;4.10;;;16.40;99.90;;;;;;5053286;28;20044;-72
2023/08/07 06:07:14;;;;;;;14.65;3.90;;;16.50;99.90;;;;;;5052980;28;20048;-72
2023/08/07 06:09:39;;;;;;;14.77;3.88;;;16.10;99.90;;;;;;5052952;28;20036;-71
2023/08/07 06:12:05;;;;;;;12.13;3.35;;;16.10;99.90;;;;;;5053265;28;20517;-72
2023/08/07 06:14:30;;;;;;;13.82;3.92;;;15.80;99.90;;;;;;5053016;28;20545;-72
2023/08/07 06:16:57;;;;;;;9.82;3.75;;;15.90;99.90;;;;;;5036508;28;20128;-72
2023/08/07 06:19:23;;;;;;;15.43;4.10;;;15.60;99.90;;;;;;5053123;28;20048;-72
2023/08/07 06:21:49;;;;;;;11.43;3.55;;;15.50;99.90;;;;;;5053397;28;20032;-72
2023/08/07 06:24:14;;;;;;;17.67;3.80;;;15.50;99.90;;;;;;5053141;28;20170;-72
2023/08/07 06:26:40;;;;;;;12.73;3.00;;;15.50;99.90;;;;;;5036556;28;20040;-71
2023/08/07 06:29:06;;;;;;;14.02;3.92;;;15.50;99.90;;;;;;5036254;28;20037;-71
2023/08/07 06:31:31;;;;;;;11.57;3.17;;;15.60;99.90;;;;;;5053338;28;20079;-72
2023/08/07 06:33:59;;;;;;;12.15;3.92;;;15.40;99.90;;;;;;5053041;28;20112;-71
2023/08/07 06:36:25;;;;;;;9.13;3.35;;;15.50;99.90;;;;;;5052974;28;20646;-72
2023/08/07 06:38:51;;;;;;;10.25;2.90;;;15.40;99.90;;;;;;5052719;28;20040;-72
2023/08/07 06:41:16;;;;;;;9.23;2.78;;;15.50;99.90;;;;;;5053015;28;20121;-73
2023/08/07 06:43:42;;;;;;;11.00;2.67;;;15.40;99.90;;;;;;5053269;28;20093;-73
2023/08/07 06:46:07;;;;;;;13.23;3.88;;;15.30;99.90;;;;;;5054903;28;20032;-72
2023/08/07 06:48:33;;;;;;;10.27;2.67;;;15.40;99.90;;;;;;5056333;28;20044;-72
2023/08/07 06:50:59;;;;;;;9.75;2.67;;;15.90;99.90;;;;;;5056554;28;20393;-73
2023/08/07 06:53:24;;;;;;;6.28;2.45;;;16.20;99.90;;;;;;5056659;28;20041;-74
2023/08/07 06:55:51;;;;;;;10.45;2.90;;;16.30;99.90;;;;;;5056478;28;20572;-74
2023/08/07 06:58:16;;;;;;;7.35;3.15;;;16.10;99.90;;;;;;5039687;28;20391;-72
2023/08/07 07:00:42;;;;;;;10.05;2.25;;;16.20;99.90;;;;;;5056731;28;20037;-73
2023/08/07 07:03:09;;;;;;;8.65;3.08;;;15.70;99.90;;;;;;5074302;28;20484;-73
2023/08/07 07:05:35;;;;;;;13.43;3.17;;;15.60;99.90;;;;;;5039934;28;20037;-73
2023/08/07 07:08:00;;;;;;;10.05;2.85;;;15.50;99.90;;;;;;5056281;28;20037;-73
2023/08/07 07:10:26;;;;;;;14.45;3.08;;;15.50;99.90;;;;;;5056302;28;20032;-73
2023/08/07 07:12:52;;;;;;;11.23;2.78;;;15.50;99.90;;;;;;5056115;28;20048;-73
2023/08/07 07:15:18;;;;;;;10.07;3.15;;;15.70;99.90;;;;;;5056006;28;20451;-73
2023/08/07 07:17:43;;;;;;;10.38;2.42;;;15.60;99.90;;;;;;5056059;28;20036;-73
2023/08/07 07:20:09;;;;;;;10.43;2.53;;;15.70;99.90;;;;;;5056029;28;20492;-72
2023/08/07 07:22:35;;;;;;;8.27;3.33;;;15.70;99.90;;;;;;5055827;28;20040;-73
2023/08/07 07:25:01;;;;;;;8.15;2.75;;;15.70;99.90;;;;;;5056036;28;20036;-72
2023/08/07 07:27:26;;;;;;;12.57;2.60;;;15.40;99.90;;;;;;5055452;28;20036;-73
2023/08/07 07:29:52;;;;;;;13.68;2.42;;;15.40;99.90;;;;;;5039499;28;20093;-73
2023/08/07 07:32:18;;;;;;;10.35;3.33;;;15.30;99.90;;;;;;5073787;28;20484;-72
2023/08/07 07:34:44;;;;;;;9.80;2.78;;;15.10;99.90;;;;;;5055643;28;20037;-73
2023/08/07 07:37:10;;;;;;;8.32;2.58;;;15.10;99.90;;;;;;5055642;28;20032;-73
2023/08/07 07:39:36;;;;;;;8.52;2.80;;;15.30;99.90;;;;;;5055405;28;20076;-73
2023/08/07 07:42:02;;;;;;;10.38;2.88;;;15.00;99.90;;;;;;5039183;28;20094;-72
2023/08/07 07:44:28;;;;;;;10.13;3.10;;;15.20;99.90;;;;;;5055706;28;20436;-73
2023/08/07 07:46:54;;;;;;;9.38;2.42;;;15.40;99.90;;;;;;5055696;28;20396;-72
2023/08/07 07:49:20;;;;;;;13.10;3.45;;;15.50;99.90;;;;;;5055264;28;20062;-72
2023/08/07 07:51:46;;;;;;;8.80;2.50;;;15.80;99.90;;;;;;5055427;28;20067;-73
2023/08/07 07:54:12;;;;;;;10.70;3.17;;;15.80;99.90;;;;;;5055294;28;20060;-73
2023/08/07 07:56:37;;;;;;;9.65;2.90;;;16.00;99.90;;;;;;5054972;28;20408;-73
2023/08/07 07:59:03;;;;;;;9.50;2.95;;;16.20;99.90;;;;;;5038457;28;20410;-73
2023/08/07 08:01:28;;;;;;;12.93;2.72;;;16.20;99.90;;;;;;5055241;28;20036;-73
2023/08/07 08:03:54;;;;;;;9.82;2.60;;;16.60;99.90;;;;;;5038617;28;20123;-73
2023/08/07 08:06:19;;;;;;;14.60;4.15;;;16.50;99.90;;;;;;5055192;28;20040;-73
2023/08/07 08:08:45;;;;;;;13.13;3.75;;;16.40;99.90;;;;;;5054739;28;20479;-73
2023/08/07 08:11:11;;;;;;;14.88;3.25;;;16.50;99.90;;;;;;5055077;28;20044;-73
2023/08/07 08:13:39;;;;;;;8.68;3.05;;;16.30;99.90;;;;;;5054983;28;20428;-73
2023/08/07 08:16:04;;;;;;;8.23;3.33;;;15.90;99.90;;;;;;5038231;28;20442;-72
2023/08/07 08:18:30;;;;;;;13.45;3.60;;;16.00;99.90;;;;;;5054582;28;20037;-73
2023/08/07 08:20:56;;;;;;;13.65;4.43;;;15.50;99.90;;;;;;5055127;28;20041;-73
2023/08/07 08:23:21;;;;;;;12.38;3.90;;;15.30;99.90;;;;;;5054977;28;20127;-73
2023/08/07 08:25:48;;;;;;;8.18;2.92;;;15.40;99.90;;;;;;5072680;28;20047;-72
2023/08/07 08:28:13;;;;;;;12.13;3.70;;;15.10;99.90;;;;;;5072396;28;20454;-73
2023/08/07 08:30:39;;;;;;;9.63;3.28;;;15.10;99.90;;;;;;5072584;28;20044;-73
2023/08/07 08:33:05;;;;;;;9.20;3.35;;;15.00;99.90;;;;;;5038257;28;20420;-73
2023/08/07 08:35:31;;;;;;;6.60;2.97;;;15.20;99.90;;;;;;5054477;28;20040;-73
2023/08/07 08:37:57;;;;;;;15.25;3.50;;;15.20;99.90;;;;;;5037714;28;20040;-73
2023/08/07 08:40:24;;;;;;;10.40;3.33;;;15.70;99.90;;;;;;5054328;28;20043;-74
2023/08/07 08:42:51;;;;;;;7.85;3.08;;;16.00;99.90;;;;;;5037860;28;20127;-74
2023/08/07 08:45:18;;;;;;;6.13;3.63;;;16.40;99.90;;;;;;5054451;28;20044;-74
2023/08/07 08:47:46;;;;;;;13.15;3.28;;;16.90;99.90;;;;;;5036947;28;20058;-73
2023/08/07 08:50:14;;;;;;;6.93;3.03;;;16.60;99.90;;;;;;5048518;28;20048;-73
2023/08/07 08:52:43;;;;;;;8.05;2.83;;;16.80;99.90;;;;;;5065532;28;20563;-73
2023/08/07 08:55:11;;;;;;;16.50;3.67;;;16.90;99.90;;;;;;5062201;28;20119;-74
2023/08/07 08:57:37;;;;;;;14.85;3.17;;;17.50;99.90;;;;;;5070596;28;20120;-74
2023/08/07 09:00:13;;;;;;;10.65;3.00;;;17.50;99.90;;;;;;5054070;28;20588;-73
2023/08/07 09:02:38;;;;;;;12.07;3.13;;;17.30;99.90;;;;;;5070801;28;20045;-73
2023/08/07 09:05:04;;;;;;;9.77;2.70;;;17.30;99.90;;;;;;5054337;28;20082;-73
2023/08/07 09:07:30;;;;;;;12.00;3.10;;;17.10;99.90;;;;;;5070311;28;20032;-74
2023/08/07 09:09:57;;;;;;;8.00;3.33;;;17.40;99.90;;;;;;5089703;22;20117;-70
2023/08/07 09:12:31;;;;;;;6.15;2.03;;;17.60;99.90;;;;;;5071847;28;20106;-70
2023/08/07 09:14:58;;;;;;;14.20;2.53;;;17.70;99.90;;;;;;5071744;28;20044;-70
2023/08/07 09:17:26;;;;;;;8.18;2.35;;;18.10;99.90;;;;;;5071746;28;20044;-71
2023/08/07 09:19:52;;;;;;;8.48;2.20;;;18.10;99.90;;;;;;5071790;28;20113;-70
2023/08/07 09:22:19;;;;;;;6.70;2.08;;;18.30;99.90;;;;;;5071854;28;20412;-70
2023/08/07 09:24:44;;;;;;;8.73;3.33;;;18.20;99.90;;;;;;5071774;28;20056;-70
2023/08/07 09:27:10;;;;;;;8.80;2.25;;;18.30;99.90;;;;;;5071599;28;20048;-70
2023/08/07 09:29:35;;;;;;;8.02;2.50;;;18.30;99.90;;;;;;5071530;28;20040;-70
2023/08/07 09:32:09;;;;;;;6.63;2.05;;;18.50;99.90;;;;;;5071687;28;20075;-70
2023/08/07 09:34:35;;;;;;;6.03;2.30;;;18.50;99.90;;;;;;5071791;28;20051;-71
2023/08/07 09:37:01;;;;;;;8.57;2.20;;;18.60;99.90;;;;;;5071475;28;20033;-70
2023/08/07 09:39:27;;;;;;;9.27;2.47;;;18.50;99.90;;;;;;5071558;28;20029;-70
2023/08/07 09:41:52;;;;;;;6.13;2.22;;;18.40;99.90;;;;;;5071509;28;20557;-70
2023/08/07 09:44:18;;;;;;;6.78;2.88;;;18.50;99.90;;;;;;5071740;28;20519;-71
2023/08/07 09:46:44;;;;;;;6.63;1.83;;;18.20;99.90;;;;;;5071569;28;20531;-70
2023/08/07 09:49:10;;;;;;;9.70;2.38;;;18.10;99.90;;;;;;5071412;28;20044;-71
2023/08/07 09:51:43;;;;;;;10.52;3.13;;;18.00;99.90;;;;;;5070207;28;20041;-70
2023/08/07 09:54:09;;;;;;;5.85;2.40;;;18.10;99.90;;;;;;5071457;28;20068;-70
2023/08/07 09:56:35;;;;;;;9.98;2.25;;;18.20;99.90;;;;;;5071256;28;20546;-70
2023/08/07 09:59:01;;;;;;;4.18;1.98;;;18.30;99.90;;;;;;5071349;28;20044;-71
2023/08/07 10:01:26;;;;;;;7.72;1.90;;;18.40;99.90;;;;;;5070096;28;20149;-70
2023/08/07 10:03:52;;;;;;;8.85;2.30;;;18.50;99.90;;;;;;5070350;28;20083;-70
2023/08/07 10:06:19;;;;;;;9.95;1.98;;;18.50;99.90;;;;;;5071366;28;20586;-71
2023/08/07 10:08:45;;;;;;;7.93;1.88;;;18.40;99.90;;;;;;5070849;28;20516;-71
2023/08/07 10:11:11;;;;;;;7.32;2.97;;;18.10;99.90;;;;;;5071218;28;20115;-71
2023/08/07 10:13:38;;;;;;;7.05;2.35;;;17.90;99.90;;;;;;5069918;28;20037;-71
2023/08/07 10:16:04;;;;;;;9.73;2.30;;;17.60;99.90;;;;;;5069935;28;20109;-71
2023/08/07 10:18:30;;;;;;;10.07;2.58;;;17.50;99.90;;;;;;5069316;28;20072;-70
2023/08/07 10:20:58;;;;;;;9.70;2.95;;;17.50;99.90;;;;;;5073940;28;20060;-69
2023/08/07 10:23:23;;;;;;;6.65;2.20;;;17.50;99.90;;;;;;5074789;28;20048;-70
2023/08/07 10:25:51;;;;;;;8.30;2.67;;;17.40;99.90;;;;;;5072276;28;20450;-70
2023/08/07 10:28:18;;;;;;;7.82;2.78;;;17.40;99.90;;;;;;5072288;28;20048;-70
2023/08/07 10:30:44;;;;;;;6.25;2.30;;;17.40;99.90;;;;;;5073407;28;20517;-70
2023/08/07 10:33:12;;;;;;;15.32;2.70;;;17.40;99.90;;;;;;5074392;28;20104;-70
2023/08/07 10:35:46;;;;;;;8.35;2.45;;;17.40;99.90;;;;;;5074639;28;20131;-70
2023/08/07 10:38:12;;;;;;;6.22;2.38;;;17.40;99.90;;;;;;5056395;28;20036;-70
2023/08/07 10:41:00;;;;;;;8.13;2.45;;;17.50;99.90;;;;;;5072559;28;20377;-70
2023/08/07 10:43:27;;;;;;;6.80;2.45;;;17.60;99.90;;;;;;5073600;28;20048;-70
2023/08/07 10:45:53;;;;;;;8.07;2.38;;;17.50;99.90;;;;;;5073360;28;20048;-69
2023/08/07 10:48:19;;;;;;;7.75;2.35;;;17.60;99.90;;;;;;5074188;28;20047;-70
2023/08/07 10:50:54;;;;;;;11.18;2.42;;;17.50;99.90;;;;;;5074317;28;20037;-70
2023/08/07 10:53:51;;;;;;;15.55;3.75;;;17.40;99.90;;;;;;5056542;28;20407;-70
2023/08/07 10:56:40;;;;;;;11.65;2.67;;;17.40;99.90;;;;;;5065619;28;20052;-70
2023/08/07 10:59:11;;;;;;;9.02;2.35;;;17.40;99.90;;;;;;5074082;28;20130;-70
2023/08/07 11:01:43;;;;;;;14.18;2.45;;;17.30;99.90;;;;;;5073269;28;20047;-70
2023/08/07 11:04:11;;;;;;;6.32;2.67;;;17.50;99.90;;;;;;5074461;28;20072;-70
2023/08/07 11:06:38;;;;;;;5.38;1.73;;;17.50;99.90;;;;;;5073113;28;20052;-70
2023/08/07 11:09:07;;;;;;;5.75;2.20;;;17.60;99.90;;;;;;5073329;28;20049;-70
2023/08/07 11:11:41;;;;;;;3.97;2.00;;;17.80;99.90;;;;;;5072930;28;20501;-70
2023/08/07 11:14:17;;;;;;;8.40;1.73;;;17.90;99.90;;;;;;5074153;28;20566;-69
2023/08/07 11:16:44;;;;;;;4.30;1.45;;;18.00;99.90;;;;;;5072967;28;20400;-70
2023/08/07 11:19:11;;;;;;;5.72;1.50;;;17.90;99.90;;;;;;5073887;28;20033;-70
2023/08/07 11:21:37;;;;;;;5.72;1.65;;;18.10;99.90;;;;;;5073878;28;20048;-70
2023/08/07 11:24:03;;;;;;;4.68;1.60;;;18.20;99.90;;;;;;5073812;28;20040;-69
2023/08/07 11:26:29;;;;;;;3.45;1.60;;;18.10;99.90;;;;;;5073649;28;20519;-69
2023/08/07 11:28:55;;;;;;;4.38;1.85;;;18.00;99.90;;;;;;5073722;28;20041;-69
2023/08/07 11:31:24;;;;;;;10.60;1.83;;;17.80;99.90;;;;;;5073246;28;20045;-69
2023/08/07 11:33:57;;;;;;;5.63;2.20;;;17.80;99.90;;;;;;5072556;28;20175;-69
2023/08/07 11:36:24;;;;;;;9.65;3.28;;;17.70;99.90;;;;;;5072351;28;20094;-69
2023/08/07 11:38:50;;;;;;;8.20;2.38;;;17.40;99.90;;;;;;5073217;28;20067;-70
2023/08/07 11:41:17;;;;;;;6.32;2.05;;;17.30;99.90;;;;;;5073568;28;20492;-69
2023/08/07 11:43:43;;;;;;;9.23;3.10;;;17.20;99.90;;;;;;5069793;28;20037;-70
2023/08/07 11:46:11;;;;;;;10.32;2.45;;;16.80;99.90;;;;;;5073559;28;20496;-69
2023/08/07 11:48:38;;;;;;;4.22;1.63;;;16.80;99.90;;;;;;5073113;28;20043;-69
2023/08/07 11:51:05;;;;;;;7.22;1.50;;;16.60;99.90;;;;;;5073251;28;20036;-69
2023/08/07 11:53:36;;;;;;;7.05;2.45;;;16.50;99.90;;;;;;5073308;28;20094;-69
2023/08/07 11:56:05;;;;;;;8.57;2.25;;;16.50;99.90;;;;;;5073375;28;20450;-69
2023/08/07 11:58:47;;;;;;;4.85;1.70;;;16.50;99.90;;;;;;5072926;28;20412;-70
2023/08/07 12:01:24;;;;;;;3.15;1.30;;;16.50;99.90;;;;;;5073172;28;20044;-69
2023/08/07 12:03:53;;;;;;;3.00;1.10;;;16.40;99.90;;;;;;5073353;28;20082;-69
2023/08/07 12:06:19;;;;;;;2.55;0.75;;;16.40;99.90;;;;;;5072998;28;20407;-69
2023/08/07 12:08:44;;;;;;;3.30;0.82;;;16.40;99.90;;;;;;5072734;28;20045;-70
2023/08/07 12:11:13;;;;;;;2.83;0.80;;;16.30;99.90;;;;;;5073089;28;20079;-70
2023/08/07 12:13:44;;;;;;;4.00;1.02;;;16.40;99.90;;;;;;5072859;28;20047;-70
2023/08/07 12:16:15;;;;;;;4.45;1.40;;;16.30;99.90;;;;;;5072819;28;20170;-70
2023/08/07 12:18:44;;;;;;;5.90;1.40;;;16.30;99.90;;;;;;5072674;28;20135;-69
2023/08/07 12:21:10;;;;;;;4.38;1.52;;;16.40;99.90;;;;;;5072870;28;20037;-69
2023/08/07 12:23:37;;;;;;;7.45;1.92;;;16.30;99.90;;;;;;5072930;28;20522;-70
2023/08/07 12:26:06;;;;;;;3.47;1.55;;;16.10;99.90;;;;;;5072548;28;20060;-70
2023/08/07 12:28:31;;;;;;;5.78;1.67;;;15.80;99.90;;;;;;5072286;28;20062;-70
2023/08/07 12:30:57;;;;;;;6.20;1.77;;;15.80;99.90;;;;;;5072768;28;20041;-69
2023/08/07 12:33:23;;;;;;;4.60;2.10;;;15.70;99.90;;;;;;5072631;28;20075;-70
2023/08/07 12:35:48;;;;;;;4.55;1.60;;;15.50;99.90;;;;;;5072597;28;20036;-69
2023/08/07 12:38:14;;;;;;;3.22;1.42;;;15.50;99.90;;;;;;5071265;28;20036;-69
2023/08/07 12:40:40;;;;;;;4.22;1.70;;;15.50;99.90;;;;;;5070552;28;20565;-70